createdAt,value
2018-08-04T00:00:54.876Z,95653.98
2018-08-04T00:03:23.916Z,95655.02
2018-08-04T00:05:52.973Z,95651.61
2018-08-04T00:08:22.327Z,95649.16
2018-08-04T00:10:51.382Z,95647.80
2018-08-04T00:15:56.194Z,95647.95
2018-08-04T00:18:25.245Z,95649.31
2018-08-04T00:20:54.350Z,95641.56
2018-08-04T00:23:23.417Z,95638.55
2018-08-04T00:25:52.552Z,95642.37
2018-08-04T00:28:21.625Z,95641.34
2018-08-04T00:30:50.694Z,95640.41
2018-08-04T00:33:19.762Z,95638.72
2018-08-04T00:35:48.817Z,95636.69
2018-08-04T00:38:18.877Z,95638.45
2018-08-04T00:40:47.937Z,95635.63
2018-08-04T00:43:17.011Z,95639.76
2018-08-04T00:45:46.098Z,95640.48
2018-08-04T00:48:15.157Z,95635.58
2018-08-04T00:50:44.267Z,95639.09
2018-08-04T00:53:13.338Z,95634.42
2018-08-04T00:55:42.394Z,95635.74
2018-08-04T00:58:11.465Z,95634.22
2018-08-04T01:00:40.565Z,95631.26
2018-08-04T01:03:09.632Z,95638.22
2018-08-04T01:05:39.657Z,95627.41
2018-08-04T01:08:08.715Z,95629.44
2018-08-04T01:10:37.792Z,95630.39
2018-08-04T01:13:06.871Z,95633.64
2018-08-04T01:18:11.737Z,95628.83
2018-08-04T01:20:40.863Z,95629.92
2018-08-04T01:23:09.926Z,95631.97
2018-08-04T01:25:39.022Z,95628.95
2018-08-04T01:30:43.880Z,95630.95
2018-08-04T01:33:12.980Z,95627.58
2018-08-04T01:35:42.044Z,95632.06
2018-08-04T01:38:11.109Z,95627.56
2018-08-04T01:40:40.173Z,95631.53
2018-08-04T01:43:09.259Z,95630.03
2018-08-04T01:45:38.307Z,95634.06
2018-08-04T01:48:07.370Z,95632.06
2018-08-04T01:50:36.476Z,95633.52
2018-08-04T01:53:05.544Z,95636.02
2018-08-04T01:55:34.603Z,95634.94
2018-08-04T01:58:03.656Z,95633.05
2018-08-04T02:00:32.717Z,95631.72
2018-08-04T02:03:02.777Z,95629.72
2018-08-04T02:05:32.791Z,95630.36
2018-08-04T02:08:02.053Z,95628.89
2018-08-04T02:14:08.543Z,95626.75
2018-08-04T02:16:37.602Z,95621.13
2018-08-04T02:19:07.673Z,95621.93
2018-08-04T02:21:36.722Z,95623.94
2018-08-04T02:24:05.790Z,95624.36
2018-08-04T02:26:35.905Z,95626.62
2018-08-04T02:29:04.964Z,95625.29
2018-08-04T02:31:34.025Z,95625.80
2018-08-04T02:34:03.093Z,95624.64
2018-08-04T02:36:34.126Z,95621.69
2018-08-04T02:39:03.219Z,95620.30
2018-08-04T02:44:08.003Z,95624.66
2018-08-04T02:49:12.854Z,95621.84
2018-08-04T02:51:41.925Z,95621.95
2018-08-04T02:54:10.989Z,95621.53
2018-08-04T02:56:40.058Z,95622.83
2018-08-04T02:59:09.153Z,95621.21
2018-08-04T03:01:38.196Z,95619.33
2018-08-04T03:04:07.285Z,95620.36
2018-08-04T03:06:36.345Z,95622.67
2018-08-04T03:11:41.215Z,95623.07
2018-08-04T03:14:10.304Z,95620.08
2018-08-04T03:19:15.171Z,95629.34
2018-08-04T03:21:44.288Z,95629.82
2018-08-04T03:24:13.388Z,95630.33
2018-08-04T03:26:42.445Z,95628.08
2018-08-04T03:31:47.458Z,95631.91
2018-08-04T03:34:16.509Z,95635.20
2018-08-04T03:36:45.582Z,95633.61
2018-08-04T03:39:15.593Z,95634.31
2018-08-04T03:41:44.777Z,95636.08
2018-08-04T03:44:15.061Z,95638.52
2018-08-04T03:46:44.102Z,95636.66
2018-08-04T03:49:13.168Z,95636.05
2018-08-04T03:51:42.235Z,95638.30
2018-08-04T03:54:11.335Z,95638.23
2018-08-04T03:56:41.430Z,95633.23
2018-08-04T04:01:46.234Z,95637.66
2018-08-04T04:04:15.293Z,95637.11
2018-08-04T04:06:44.481Z,95642.80
2018-08-04T04:11:49.172Z,95639.53
2018-08-04T04:14:18.249Z,95640.81
2018-08-04T04:19:23.254Z,95643.99
2018-08-04T04:21:52.315Z,95646.05
2018-08-04T04:26:57.212Z,95648.81
2018-08-04T04:29:26.250Z,95647.81
2018-08-04T04:31:55.306Z,95648.55
2018-08-04T04:34:24.371Z,95651.64
2018-08-04T04:36:53.494Z,95653.70
2018-08-04T04:39:22.505Z,95656.58
2018-08-04T04:41:51.563Z,95654.80
2018-08-04T04:44:20.633Z,95656.30
2018-08-04T04:46:49.714Z,95652.59
2018-08-04T04:49:21.008Z,95655.77
2018-08-04T04:51:50.146Z,95650.76
2018-08-04T04:54:19.207Z,95647.64
2018-08-04T04:59:24.062Z,95649.41
2018-08-04T05:04:28.957Z,95650.16
2018-08-04T05:06:58.239Z,95651.57
2018-08-04T05:09:27.314Z,95654.42
2018-08-04T05:11:56.373Z,95654.46
2018-08-04T05:17:01.173Z,95652.42
2018-08-04T05:19:30.257Z,95653.05
2018-08-04T05:21:59.343Z,95653.88
2018-08-04T05:24:28.407Z,95653.45
2018-08-04T05:26:57.479Z,95653.19
2018-08-04T05:29:26.550Z,95651.67
2018-08-04T05:31:56.629Z,95656.45
2018-08-04T05:34:25.698Z,95657.60
2018-08-04T05:36:55.684Z,95656.57
2018-08-04T05:39:28.771Z,95658.67
2018-08-04T05:41:57.855Z,95661.77
2018-08-04T05:44:26.965Z,95664.84
2018-08-04T05:46:56.030Z,95664.68
2018-08-04T05:49:26.092Z,95668.63
2018-08-04T05:51:57.141Z,95663.47
2018-08-04T05:54:26.208Z,95663.66
2018-08-04T05:56:55.279Z,95665.61
2018-08-04T05:59:24.352Z,95670.91
2018-08-04T06:04:29.215Z,95673.50
2018-08-04T06:06:58.284Z,95679.83
2018-08-04T06:09:27.342Z,95676.41
2018-08-04T06:11:58.409Z,95676.95
2018-08-04T06:14:27.497Z,95671.61
2018-08-04T06:19:33.312Z,95682.38
2018-08-04T06:22:02.415Z,95685.88
2018-08-04T06:24:33.765Z,95685.16
2018-08-04T06:29:38.667Z,95674.29
2018-08-04T06:32:07.734Z,95671.73
2018-08-04T06:34:36.804Z,95679.08
2018-08-04T06:37:06.317Z,95676.61
2018-08-04T06:39:35.373Z,95674.72
2018-08-04T06:44:40.221Z,95680.44
2018-08-04T06:47:09.278Z,95678.52
2018-08-04T06:49:41.117Z,95680.14
2018-08-04T06:52:11.200Z,95684.02
2018-08-04T06:54:40.248Z,95678.97
2018-08-04T06:59:45.113Z,95675.03
2018-08-04T07:02:14.705Z,95675.71
2018-08-04T07:07:19.583Z,95673.34
2018-08-04T07:09:49.226Z,95673.84
2018-08-04T07:14:54.536Z,95674.70
2018-08-04T07:20:00.315Z,95681.29
2018-08-04T07:22:30.779Z,95680.98
2018-08-04T07:25:05.363Z,95679.73
2018-08-04T07:30:10.473Z,95677.34
2018-08-04T07:32:39.528Z,95677.02
2018-08-04T07:35:08.583Z,95673.92
2018-08-04T07:37:37.658Z,95677.55
2018-08-04T07:40:07.650Z,95679.63
2018-08-04T07:42:36.765Z,95678.82
2018-08-04T07:45:05.849Z,95679.60
2018-08-04T07:47:34.973Z,95679.95
2018-08-04T07:50:07.349Z,95680.87
2018-08-04T07:52:40.098Z,95675.45
2018-08-04T07:55:09.164Z,95677.84
2018-08-04T07:57:51.683Z,95675.87
2018-08-04T08:00:23.927Z,95676.34
2018-08-04T08:05:28.741Z,95679.87
2018-08-04T08:08:03.026Z,95681.36
2018-08-04T08:13:07.946Z,95681.13
2018-08-04T08:15:50.177Z,95680.84
2018-08-04T08:18:20.201Z,95680.12
2018-08-04T08:20:53.705Z,95676.38
2018-08-04T08:25:58.609Z,95675.17
2018-08-04T08:28:31.173Z,95675.00
2018-08-04T08:33:40.141Z,95669.62
2018-08-04T08:36:09.199Z,95675.66
2018-08-04T08:38:39.220Z,95670.20
2018-08-04T08:41:21.574Z,95665.48
2018-08-04T08:43:50.940Z,95664.85
2018-08-04T08:46:23.754Z,95662.68
2018-08-04T08:51:28.670Z,95662.19
2018-08-04T08:54:01.570Z,95661.12
2018-08-04T08:56:30.530Z,95658.27
2018-08-04T08:58:59.581Z,95657.48
2018-08-04T09:01:28.805Z,95649.81
2018-08-04T09:06:40.954Z,95654.31
2018-08-04T09:09:12.010Z,95651.88
2018-08-04T09:11:44.777Z,95649.63
2018-08-04T09:14:13.848Z,95651.41
2018-08-04T09:16:43.418Z,95651.02
2018-08-04T09:19:12.483Z,95650.94
2018-08-04T09:21:42.508Z,95647.73
2018-08-04T09:24:11.661Z,95643.28
2018-08-04T09:26:40.727Z,95640.94
2018-08-04T09:31:45.547Z,95633.41
2018-08-04T09:34:14.596Z,95633.22
2018-08-04T09:36:45.605Z,95642.59
2018-08-04T09:39:14.683Z,95640.27
2018-08-04T09:41:43.747Z,95643.66
2018-08-04T09:46:48.682Z,95645.37
2018-08-04T09:49:17.764Z,95637.41
2018-08-04T09:51:47.774Z,95635.38
2018-08-04T09:54:16.851Z,95638.09
2018-08-04T09:56:45.905Z,95639.42
2018-08-04T09:59:15.914Z,95636.38
2018-08-04T10:04:22.690Z,95650.67
2018-08-04T10:06:52.023Z,95648.42
2018-08-04T10:09:22.023Z,95641.63
2018-08-04T10:11:51.088Z,95638.84
2018-08-04T10:14:20.405Z,95633.70
2018-08-04T10:16:49.476Z,95631.81
2018-08-04T10:19:18.522Z,95632.38
2018-08-04T10:24:23.308Z,95626.25
2018-08-04T10:26:52.846Z,95617.02
2018-08-04T10:29:23.418Z,95630.12
2018-08-04T10:31:52.508Z,95619.00
2018-08-04T10:34:22.526Z,95624.42
2018-08-04T10:36:51.568Z,95622.61
2018-08-04T10:39:20.616Z,95622.59
2018-08-04T10:41:49.669Z,95620.48
2018-08-04T10:44:19.643Z,95624.48
2018-08-04T10:46:48.685Z,95621.69
2018-08-04T10:49:17.770Z,95626.66
2018-08-04T10:51:46.828Z,95628.00
2018-08-04T10:54:17.043Z,95617.95
2018-08-04T10:56:46.166Z,95620.56
2018-08-04T10:59:15.206Z,95618.54
2018-08-04T11:01:44.393Z,95614.39
2018-08-04T11:04:13.425Z,95610.83
2018-08-04T11:06:42.484Z,95612.17
2018-08-04T11:09:11.554Z,95615.17
2018-08-04T11:11:40.621Z,95608.82
2018-08-04T11:14:10.704Z,95609.80
2018-08-04T11:16:42.010Z,95602.13
2018-08-04T11:19:11.072Z,95603.94
2018-08-04T11:21:40.135Z,95592.33
2018-08-04T11:24:09.507Z,95599.62
2018-08-04T11:26:38.537Z,95606.59
2018-08-04T11:34:19.127Z,95612.45
2018-08-04T11:36:48.185Z,95608.29
2018-08-04T11:39:18.544Z,95607.12
2018-08-04T11:41:47.662Z,95607.00
2018-08-04T11:44:16.728Z,95599.07
2018-08-04T11:46:45.791Z,95598.38
2018-08-04T11:54:26.359Z,95591.01
2018-08-04T11:56:56.765Z,95584.67
2018-08-04T11:59:25.996Z,95579.35
2018-08-04T12:01:55.943Z,95573.99
2018-08-04T12:04:24.949Z,95574.68
2018-08-04T12:06:54.171Z,95569.88
2018-08-04T12:09:23.259Z,95563.48
2018-08-04T12:11:52.313Z,95564.03
2018-08-04T12:14:21.513Z,95557.70
2018-08-04T12:16:50.568Z,95554.23
2018-08-04T12:19:19.635Z,95540.29
2018-08-04T12:21:49.313Z,95542.84
2018-08-04T12:24:20.360Z,95539.12
2018-08-04T12:26:49.416Z,95541.38
2018-08-04T12:29:18.795Z,95544.33
2018-08-04T12:31:48.756Z,95534.34
2018-08-04T12:36:53.713Z,95540.92
2018-08-04T12:39:22.770Z,95541.13
2018-08-04T12:41:51.842Z,95546.42
2018-08-04T12:44:20.888Z,95545.69
2018-08-04T12:46:49.951Z,95541.66
2018-08-04T12:51:54.752Z,95530.00
2018-08-04T12:56:59.463Z,95527.28
2018-08-04T13:02:04.208Z,95524.29
2018-08-04T13:04:34.407Z,95531.39
2018-08-04T13:07:03.430Z,95527.73
2018-08-04T13:09:32.502Z,95523.67
2018-08-04T13:12:02.574Z,95521.83
2018-08-04T13:14:31.587Z,95529.37
2018-08-04T13:17:00.638Z,95522.39
2018-08-04T13:19:29.681Z,95512.97
2018-08-04T13:21:58.795Z,95515.81
2018-08-04T13:24:27.812Z,95510.41
2018-08-04T13:26:57.901Z,95510.31
2018-08-04T13:29:27.047Z,95507.14
2018-08-04T13:31:59.997Z,95500.91
2018-08-04T13:34:29.134Z,95500.55
2018-08-04T13:36:59.088Z,95500.47
2018-08-04T13:39:30.016Z,95501.40
2018-08-04T13:44:34.763Z,95491.43
2018-08-04T13:49:39.573Z,95498.53
2018-08-04T13:52:08.622Z,95498.44
2018-08-04T13:54:40.795Z,95503.88
2018-08-04T13:57:10.277Z,95502.06
2018-08-04T13:59:39.339Z,95509.88
2018-08-04T14:02:08.448Z,95511.59
2018-08-04T14:04:37.954Z,95510.15
2018-08-04T14:07:07.020Z,95509.33
2018-08-04T14:09:36.110Z,95502.20
2018-08-04T14:17:16.616Z,95485.52
2018-08-04T14:19:46.594Z,95493.25
2018-08-04T14:22:15.658Z,95486.63
2018-08-04T14:24:44.723Z,95483.19
2018-08-04T14:27:13.805Z,95479.35
2018-08-04T14:29:42.931Z,95477.91
2018-08-04T14:32:12.983Z,95478.49
2018-08-04T14:34:42.119Z,95483.91
2018-08-04T14:37:11.203Z,95483.44
2018-08-04T14:39:40.250Z,95481.86
2018-08-04T14:42:09.304Z,95479.28
2018-08-04T14:44:38.364Z,95478.28
2018-08-04T14:47:08.345Z,95473.98
2018-08-04T14:49:37.475Z,95469.73
2018-08-04T14:52:07.661Z,95465.73
2018-08-04T14:54:36.706Z,95464.46
2018-08-04T14:57:06.697Z,95464.98
2018-08-04T14:59:37.715Z,95457.86
2018-08-04T15:02:06.769Z,95460.66
2018-08-04T15:04:35.841Z,95462.25
2018-08-04T15:07:04.936Z,95468.20
2018-08-04T15:09:33.991Z,95466.37
2018-08-04T15:12:05.465Z,95464.95
2018-08-04T15:14:35.559Z,95474.64
2018-08-04T15:17:04.681Z,95472.26
2018-08-04T15:19:34.703Z,95470.25
2018-08-04T15:22:04.749Z,95468.44
2018-08-04T15:27:09.628Z,95471.83
2018-08-04T15:29:38.726Z,95467.49
2018-08-04T15:32:08.821Z,95474.62
2018-08-04T15:34:37.864Z,95475.91
2018-08-04T15:37:06.908Z,95473.41
2018-08-04T15:39:35.984Z,95470.77
2018-08-04T15:42:05.029Z,95469.99
2018-08-04T15:47:09.780Z,95482.22
2018-08-04T15:49:39.904Z,95475.69
2018-08-04T15:52:09.972Z,95470.33
2018-08-04T15:54:40.022Z,95470.16
2018-08-04T15:57:10.805Z,95469.64
2018-08-04T15:59:40.893Z,95464.88
2018-08-04T16:02:09.944Z,95466.68
2018-08-04T16:04:39.242Z,95465.77
2018-08-04T16:07:08.305Z,95474.66
2018-08-04T16:09:38.287Z,95472.83
2018-08-04T16:12:07.481Z,95478.73
2018-08-04T16:14:36.513Z,95485.55
2018-08-04T16:17:05.578Z,95482.70
2018-08-04T16:19:34.689Z,95483.39
2018-08-04T16:22:03.747Z,95477.27
2018-08-04T16:24:32.790Z,95478.39
2018-08-04T16:27:02.828Z,95481.66
2018-08-04T16:29:31.861Z,95482.38
2018-08-04T16:32:00.937Z,95487.52
2018-08-04T16:34:30.005Z,95486.16
2018-08-04T16:36:59.221Z,95495.47
2018-08-04T16:42:04.134Z,95493.56
2018-08-04T16:44:33.140Z,95493.83
2018-08-04T16:47:02.181Z,95496.00
2018-08-04T16:52:07.034Z,95486.77
2018-08-04T16:54:36.126Z,95488.17
2018-08-04T16:57:05.216Z,95491.42
2018-08-04T16:59:38.817Z,95489.73
2018-08-04T17:02:07.939Z,95492.25
2018-08-04T17:07:12.785Z,95489.79
2018-08-04T17:09:41.842Z,95493.28
2018-08-04T17:12:11.011Z,95495.59
2018-08-04T17:14:41.029Z,95497.26
2018-08-04T17:17:10.094Z,95495.23
2018-08-04T17:19:39.156Z,95497.80
2018-08-04T17:22:09.449Z,95502.27
2018-08-04T17:27:15.474Z,95504.39
2018-08-04T17:29:44.572Z,95510.42
2018-08-04T17:32:13.626Z,95508.72
2018-08-04T17:37:19.412Z,95505.70
2018-08-04T17:39:48.465Z,95508.28
2018-08-04T17:42:19.510Z,95508.41
2018-08-04T17:44:48.549Z,95514.92
2018-08-04T17:47:17.786Z,95513.55
2018-08-04T17:49:46.955Z,95515.84
2018-08-04T17:52:16.098Z,95514.06
2018-08-04T17:54:46.131Z,95507.43
2018-08-04T17:57:15.241Z,95514.66
2018-08-04T17:59:44.263Z,95508.14
2018-08-04T18:02:13.333Z,95508.94
2018-08-04T18:04:42.373Z,95505.22
2018-08-04T18:07:11.447Z,95507.41
2018-08-04T18:09:40.513Z,95512.25
2018-08-04T18:12:09.626Z,95517.78
2018-08-04T18:14:38.695Z,95515.27
2018-08-04T18:19:43.455Z,95517.16
2018-08-04T18:22:12.513Z,95520.80
2018-08-04T18:27:17.361Z,95520.55
2018-08-04T18:29:46.551Z,95522.59
2018-08-04T18:32:15.539Z,95520.16
2018-08-04T18:34:46.523Z,95520.88
2018-08-04T18:37:15.615Z,95521.70
2018-08-04T18:39:44.665Z,95525.34
2018-08-04T18:42:14.695Z,95536.30
2018-08-04T18:44:43.779Z,95535.63
2018-08-04T18:47:20.961Z,95544.27
2018-08-04T18:49:50.993Z,95540.91
2018-08-04T18:52:20.049Z,95541.91
2018-08-04T18:54:49.122Z,95541.77
2018-08-04T18:57:19.108Z,95542.56
2018-08-04T18:59:48.164Z,95542.27
2018-08-04T19:02:17.242Z,95548.58
2018-08-04T19:04:47.220Z,95553.77
2018-08-04T19:07:18.277Z,95554.62
2018-08-04T19:09:48.286Z,95556.78
2018-08-04T19:14:53.180Z,95559.89
2018-08-04T19:17:25.616Z,95566.63
2018-08-04T19:22:30.564Z,95571.70
2018-08-04T19:24:59.561Z,95572.69
2018-08-04T19:30:04.875Z,95562.13
2018-08-04T19:32:33.957Z,95566.88
2018-08-04T19:35:04.973Z,95565.23
2018-08-04T19:40:09.858Z,95566.01
2018-08-04T19:42:38.946Z,95569.86
2018-08-04T19:45:08.023Z,95570.24
2018-08-04T19:47:38.037Z,95574.47
2018-08-04T19:50:07.144Z,95580.13
2018-08-04T19:55:12.020Z,95583.08
2018-08-04T19:57:42.017Z,95584.23
2018-08-04T20:02:47.905Z,95594.50
2018-08-04T20:05:16.982Z,95599.05
2018-08-04T20:10:21.886Z,95598.81
2018-08-04T20:12:50.945Z,95593.22
2018-08-04T20:15:20.005Z,95598.09
2018-08-04T20:17:49.065Z,95593.33
2018-08-04T20:20:18.184Z,95590.59
2018-08-04T20:22:47.245Z,95594.38
2018-08-04T20:25:16.304Z,95595.86
2018-08-04T20:27:45.397Z,95594.20
2018-08-04T20:30:14.450Z,95593.61
2018-08-04T20:32:43.538Z,95593.97
2018-08-04T20:35:12.600Z,95591.62
2018-08-04T20:42:53.165Z,95595.98
2018-08-04T20:45:23.185Z,95595.83
2018-08-04T20:47:52.313Z,95597.05
2018-08-04T20:50:21.361Z,95599.18
2018-08-04T20:52:50.478Z,95591.15
2018-08-04T20:57:55.255Z,95585.44
2018-08-04T21:00:24.325Z,95586.20
2018-08-04T21:02:53.424Z,95588.70
2018-08-04T21:05:26.498Z,95595.75
2018-08-04T21:10:31.373Z,95599.70
2018-08-04T21:13:00.453Z,95602.98
2018-08-04T21:15:29.518Z,95598.87
2018-08-04T21:20:34.367Z,95595.75
2018-08-04T21:25:39.163Z,95595.00
2018-08-04T21:28:08.214Z,95594.08
2018-08-04T21:33:13.025Z,95596.72
2018-08-04T21:35:42.084Z,95595.82
2018-08-04T21:38:12.131Z,95591.73
2018-08-04T21:40:42.137Z,95586.05
2018-08-04T21:43:14.410Z,95584.97
2018-08-04T21:48:19.285Z,95583.72
2018-08-04T21:50:48.361Z,95583.09
2018-08-04T21:53:17.413Z,95580.37
2018-08-04T21:55:46.471Z,95580.84
2018-08-04T21:58:16.477Z,95578.67
2018-08-04T22:03:21.185Z,95587.25
2018-08-04T22:05:52.157Z,95590.53
2018-08-04T22:11:30.792Z,95591.45
2018-08-04T22:13:59.857Z,95594.17
2018-08-04T22:16:28.954Z,95589.64
2018-08-04T22:18:58.017Z,95588.40
2018-08-04T22:21:27.080Z,95591.28
2018-08-04T22:23:58.113Z,95587.87
2018-08-04T22:26:27.185Z,95588.36
2018-08-04T22:28:56.241Z,95592.43
2018-08-04T22:31:25.335Z,95591.02
2018-08-04T22:33:57.697Z,95590.16
2018-08-04T22:36:26.848Z,95592.56
2018-08-04T22:38:55.917Z,95590.61
2018-08-04T22:44:00.787Z,95589.41
2018-08-04T22:46:31.827Z,95586.97
2018-08-04T22:49:00.889Z,95578.25
2018-08-04T22:51:31.935Z,95578.98
2018-08-04T22:54:00.998Z,95578.89
2018-08-04T22:56:30.048Z,95583.40
2018-08-04T22:59:00.083Z,95589.38
2018-08-04T23:04:05.927Z,95588.84
2018-08-04T23:06:35.956Z,95579.37
2018-08-04T23:09:05.973Z,95580.48
2018-08-04T23:11:35.051Z,95580.46
2018-08-04T23:21:51.344Z,95584.40
2018-08-04T23:24:20.696Z,95582.89
2018-08-04T23:29:26.506Z,95582.93
2018-08-04T23:31:55.576Z,95584.66
2018-08-04T23:37:00.374Z,95583.08
2018-08-04T23:39:29.470Z,95580.09
2018-08-04T23:41:58.511Z,95576.92
2018-08-04T23:44:27.570Z,95578.41
2018-08-04T23:46:56.627Z,95577.08
2018-08-04T23:49:25.727Z,95573.53
2018-08-04T23:54:30.514Z,95576.16
2018-08-04T23:56:59.568Z,95579.02
